Time;durP1;ratioP1;P1;durP2;ratioP2;P2;SDS_P1;SDS_P2;PMS_P1;PMS_P2;Temp;Humidity;BMP_temperature;BMP_pressure;BME280_temperature;BME280_humidity;BME280_pressure;Samples;Min_cycle;Max_cycle;Signal;HPM_P1;HPM_P2
2021/12/17 00:03:07;;;;;;;68.23;33.37;;;8.90;99.90;;;;;;5136275;27;20210;-45
2021/12/17 00:05:10;;;;;;;63.63;31.93;;;8.90;99.90;;;;;;5135017;27;20185;-44
2021/12/17 00:07:37;;;;;;;63.03;30.80;;;8.90;99.90;;;;;;5117131;27;20173;-46
2021/12/17 00:10:11;;;;;;;63.60;32.10;;;8.90;99.90;;;;;;5135364;27;20170;-44
2021/12/17 00:12:37;;;;;;;57.40;30.27;;;8.90;99.90;;;;;;5135280;27;20246;-46
2021/12/17 00:15:05;;;;;;;58.40;29.83;;;8.90;99.90;;;;;;5117082;27;20568;-45
2021/12/17 00:17:35;;;;;;;51.70;27.77;;;8.80;99.90;;;;;;5135703;27;20581;-45
2021/12/17 00:49:50;;;;;;;61.53;31.73;;;8.70;99.90;;;;;;5135060;27;20149;-46
2021/12/17 00:52:15;;;;;;;65.13;31.43;;;8.70;99.90;;;;;;5134572;27;20651;-46
2021/12/17 00:54:42;;;;;;;60.90;30.80;;;8.70;99.90;;;;;;5116246;27;20180;-45
2021/12/17 00:57:11;;;;;;;62.67;30.67;;;8.80;99.90;;;;;;5116740;28;20178;-45
2021/12/17 00:59:38;;;;;;;54.30;29.00;;;8.80;99.90;;;;;;5116158;27;20276;-45
2021/12/17 01:02:08;;;;;;;61.70;30.10;;;8.70;99.90;;;;;;5116151;28;20293;-45
2021/12/17 01:04:37;;;;;;;60.57;31.70;;;8.70;99.90;;;;;;5099810;28;20278;-44
2021/12/17 01:07:04;;;;;;;54.03;29.73;;;8.70;99.90;;;;;;5116017;28;20703;-45
2021/12/17 01:09:30;;;;;;;63.07;29.57;;;8.70;99.90;;;;;;5134455;27;20165;-44
2021/12/17 01:11:58;;;;;;;57.53;29.63;;;8.70;99.90;;;;;;5116031;28;20201;-46
2021/12/17 01:14:26;;;;;;;57.83;30.23;;;8.80;99.90;;;;;;5116444;28;20165;-47
2021/12/17 01:16:53;;;;;;;64.60;29.47;;;8.70;99.90;;;;;;5134761;28;20223;-46
2021/12/17 01:25:00;;;;;;;56.67;27.33;;;8.70;99.90;;;;;;5078103;28;20225;-46
2021/12/17 01:35:43;;;;;;;59.63;27.30;;;8.70;99.90;;;;;;5134631;28;20208;-46
2021/12/17 01:43:29;;;;;;;59.87;29.23;;;8.70;99.90;;;;;;5133957;28;20596;-45
2021/12/17 01:45:55;;;;;;;53.67;27.83;;;8.60;99.90;;;;;;5134046;28;20201;-45
2021/12/17 01:48:28;;;;;;;57.70;28.33;;;8.60;99.90;;;;;;5134250;28;20180;-45
2021/12/17 01:56:38;;;;;;;59.60;30.20;;;8.70;99.90;;;;;;5122286;27;20571;-47
2021/12/17 01:59:23;;;;;;;56.27;30.17;;;8.70;99.90;;;;;;5119335;27;20201;-45
2021/12/17 02:01:51;;;;;;;62.60;30.13;;;8.60;99.90;;;;;;5119300;27;20201;-45
2021/12/17 02:04:17;;;;;;;65.10;29.40;;;8.70;99.90;;;;;;5137871;27;20177;-45
2021/12/17 02:06:42;;;;;;;64.03;31.33;;;8.60;99.90;;;;;;5137708;27;20558;-45
2021/12/17 02:09:49;;;;;;;66.03;31.10;;;8.60;99.90;;;;;;5137764;27;20215;-46
2021/12/17 02:31:41;;;;;;;76.53;33.57;;;8.70;99.90;;;;;;5137957;27;20205;-45
2021/12/17 02:36:58;;;;;;;63.77;30.50;;;8.70;99.90;;;;;;5137787;27;20158;-44
2021/12/17 02:39:58;;;;;;;75.93;32.80;;;8.70;99.90;;;;;;5137433;27;20181;-45
2021/12/17 02:42:50;;;;;;;72.20;32.23;;;8.70;99.90;;;;;;5136829;27;20286;-44
2021/12/17 02:45:32;;;;;;;75.00;33.50;;;8.70;99.90;;;;;;5122965;27;20185;-45
2021/12/17 02:48:06;;;;;;;73.53;32.40;;;8.70;99.90;;;;;;5137023;27;20678;-46
2021/12/17 02:50:35;;;;;;;71.70;31.90;;;8.60;99.90;;;;;;5137362;27;20169;-47
2021/12/17 02:53:07;;;;;;;75.10;32.93;;;8.70;99.90;;;;;;5136982;27;20193;-47
2021/12/17 02:55:34;;;;;;;62.90;30.37;;;8.70;99.90;;;;;;5137192;27;20162;-47
2021/12/17 02:58:00;;;;;;;65.93;30.77;;;8.70;99.90;;;;;;5118142;27;20184;-47
2021/12/17 03:00:25;;;;;;;73.10;32.30;;;8.70;99.90;;;;;;5137009;27;20162;-47
2021/12/17 03:02:54;;;;;;;63.07;30.73;;;8.60;99.90;;;;;;5136822;27;20284;-48
2021/12/17 03:05:19;;;;;;;72.70;30.43;;;8.60;99.90;;;;;;5136828;27;20178;-47
2021/12/17 03:07:47;;;;;;;66.97;29.50;;;8.60;99.90;;;;;;5135749;27;20196;-48
2021/12/17 03:10:15;;;;;;;80.90;32.27;;;8.60;99.90;;;;;;5136953;27;20510;-47
2021/12/17 03:15:31;;;;;;;79.20;32.30;;;8.60;99.90;;;;;;5136848;27;20260;-47
2021/12/17 03:23:32;;;;;;;72.53;30.53;;;8.60;99.90;;;;;;5136290;27;20259;-47
2021/12/17 03:26:02;;;;;;;62.50;28.37;;;8.60;99.90;;;;;;5136255;27;20192;-47
2021/12/17 03:28:28;;;;;;;77.70;33.53;;;8.60;99.90;;;;;;5136540;27;20260;-48
2021/12/17 03:30:54;;;;;;;62.03;28.60;;;8.60;99.90;;;;;;5118025;27;20640;-49
2021/12/17 03:33:21;;;;;;;69.73;30.23;;;8.60;99.90;;;;;;5136016;27;20570;-48
2021/12/17 03:35:51;;;;;;;68.17;29.13;;;8.60;99.90;;;;;;5136385;27;20246;-49
2021/12/17 03:38:17;;;;;;;72.03;31.27;;;8.60;99.90;;;;;;5136385;27;20182;-47
2021/12/17 03:40:44;;;;;;;67.80;31.20;;;8.60;99.90;;;;;;5125011;27;20220;-47
2021/12/17 03:43:20;;;;;;;87.27;35.00;;;8.60;99.90;;;;;;5149186;27;20203;-47
2021/12/17 03:45:46;;;;;;;79.43;33.20;;;8.60;99.90;;;;;;5146706;27;20222;-49
2021/12/17 03:48:11;;;;;;;72.37;32.23;;;8.60;99.90;;;;;;5138013;27;20182;-49
2021/12/17 03:50:37;;;;;;;88.30;35.50;;;8.60;99.90;;;;;;5136808;27;20173;-48
2021/12/17 03:53:05;;;;;;;82.60;33.00;;;8.60;99.90;;;;;;5136601;27;20196;-48
2021/12/17 03:55:31;;;;;;;79.63;34.60;;;8.60;99.90;;;;;;5136787;27;20173;-46
2021/12/17 03:58:01;;;;;;;86.67;36.93;;;8.60;99.90;;;;;;5136710;27;20181;-49
2021/12/17 04:00:27;;;;;;;96.40;36.50;;;8.60;99.90;;;;;;5144943;27;20158;-48
2021/12/17 04:02:53;;;;;;;90.13;35.67;;;8.60;99.90;;;;;;5146245;27;20261;-47
2021/12/17 04:05:19;;;;;;;91.90;37.70;;;8.60;99.90;;;;;;5147371;27;20188;-49
2021/12/17 04:07:45;;;;;;;90.57;35.93;;;8.60;99.90;;;;;;5144262;27;20191;-48
2021/12/17 04:10:11;;;;;;;88.93;36.53;;;8.60;99.90;;;;;;5136459;27;20189;-48
2021/12/17 04:15:08;;;;;;;94.53;37.10;;;8.70;99.90;;;;;;5135513;27;20220;-48
2021/12/17 04:17:42;;;;;;;106.60;37.73;;;8.70;99.90;;;;;;5100174;27;20185;-47
2021/12/17 04:20:08;;;;;;;88.83;36.73;;;8.70;99.90;;;;;;5135547;27;20181;-48
2021/12/17 04:22:33;;;;;;;109.47;40.73;;;8.70;99.90;;;;;;5116683;27;20669;-48
2021/12/17 04:24:59;;;;;;;91.83;37.30;;;8.70;99.90;;;;;;5135177;27;20178;-46
2021/12/17 04:27:25;;;;;;;102.33;38.20;;;8.60;99.90;;;;;;5116785;27;20254;-49
2021/12/17 04:29:51;;;;;;;86.73;36.53;;;8.60;99.90;;;;;;5135640;27;20174;-48
2021/12/17 04:32:17;;;;;;;94.27;39.10;;;8.70;99.90;;;;;;5134934;27;20284;-48
2021/12/17 04:34:43;;;;;;;100.90;38.57;;;8.70;99.90;;;;;;5135327;27;20209;-48
2021/12/17 04:37:08;;;;;;;98.53;38.90;;;8.70;99.90;;;;;;5135510;27;20177;-49
2021/12/17 04:39:35;;;;;;;90.80;36.47;;;8.70;99.90;;;;;;5135139;27;20182;-48
2021/12/17 04:42:06;;;;;;;92.37;36.80;;;8.70;99.90;;;;;;5135014;27;20196;-48
2021/12/17 04:44:35;;;;;;;96.47;37.07;;;8.70;99.90;;;;;;5135290;27;20207;-48
2021/12/17 04:57:59;;;;;;;82.77;34.40;;;8.60;99.90;;;;;;5134817;27;20193;-50
2021/12/17 05:00:29;;;;;;;77.33;34.63;;;8.60;99.90;;;;;;5134555;27;20676;-47
2021/12/17 05:02:57;;;;;;;81.50;32.73;;;8.60;99.90;;;;;;5116092;28;20233;-47
2021/12/17 05:05:27;;;;;;;83.60;31.07;;;8.60;99.90;;;;;;5134750;27;20188;-47
2021/12/17 05:07:57;;;;;;;86.03;33.60;;;8.60;99.90;;;;;;5134724;27;20169;-47
2021/12/17 05:10:42;;;;;;;103.40;36.83;;;8.60;99.90;;;;;;5116202;28;20169;-48
2021/12/17 05:18:49;;;;;;;85.63;34.27;;;8.60;99.90;;;;;;5134816;28;20173;-48
2021/12/17 05:21:16;;;;;;;90.57;35.73;;;8.60;99.90;;;;;;5134633;28;20169;-47
2021/12/17 05:23:43;;;;;;;85.10;33.57;;;8.60;99.90;;;;;;5116520;28;20193;-48
2021/12/17 05:26:15;;;;;;;72.57;31.50;;;8.60;99.90;;;;;;5134105;28;20680;-47
2021/12/17 05:28:41;;;;;;;71.67;32.57;;;8.60;99.90;;;;;;5134591;28;20166;-48
2021/12/17 05:31:07;;;;;;;81.33;32.33;;;8.50;99.90;;;;;;5137139;27;20176;-48
2021/12/17 05:33:33;;;;;;;88.37;34.47;;;8.60;99.90;;;;;;5138469;27;20176;-47
2021/12/17 05:35:59;;;;;;;78.53;32.83;;;8.50;99.90;;;;;;5138677;27;20188;-48
2021/12/17 05:38:26;;;;;;;81.73;33.30;;;8.50;99.90;;;;;;5138556;27;20197;-47
2021/12/17 05:40:53;;;;;;;86.47;32.80;;;8.50;99.90;;;;;;5138791;27;20177;-47
2021/12/17 05:43:19;;;;;;;72.00;33.03;;;8.50;99.90;;;;;;5102772;27;20699;-48
2021/12/17 05:46:02;;;;;;;73.43;34.27;;;8.50;99.90;;;;;;5119806;27;20220;-47
2021/12/17 05:48:27;;;;;;;74.30;33.93;;;8.40;99.90;;;;;;5104899;27;20172;-48
2021/12/17 05:50:55;;;;;;;80.60;33.00;;;8.40;99.90;;;;;;5138172;27;20253;-47
2021/12/17 05:53:22;;;;;;;73.67;31.90;;;8.50;99.90;;;;;;5138272;27;20198;-46
2021/12/17 05:55:47;;;;;;;76.00;32.70;;;8.40;99.90;;;;;;5138358;27;20173;-49
2021/12/17 05:58:13;;;;;;;82.40;34.47;;;8.40;99.90;;;;;;5137840;27;20558;-48
2021/12/17 06:00:41;;;;;;;80.37;32.57;;;8.40;99.90;;;;;;5138360;27;20162;-48
2021/12/17 06:03:06;;;;;;;83.90;33.13;;;8.40;99.90;;;;;;5138009;27;20201;-48
2021/12/17 06:05:32;;;;;;;77.60;33.47;;;8.40;99.90;;;;;;5119387;27;20668;-48
2021/12/17 06:07:59;;;;;;;84.63;33.20;;;8.40;99.90;;;;;;5137690;27;20177;-48
2021/12/17 06:10:25;;;;;;;84.37;33.33;;;8.40;99.90;;;;;;5138503;27;20165;-48
2021/12/17 06:12:50;;;;;;;82.47;34.83;;;8.40;99.90;;;;;;5119158;27;20193;-47
2021/12/17 06:15:18;;;;;;;83.57;35.27;;;8.40;99.90;;;;;;5137750;27;20185;-47
2021/12/17 06:17:44;;;;;;;84.50;34.30;;;8.40;99.90;;;;;;5120036;27;20663;-48
2021/12/17 06:20:13;;;;;;;82.23;35.93;;;8.40;99.90;;;;;;5139267;27;20223;-48
2021/12/17 06:22:39;;;;;;;83.90;35.77;;;8.40;99.90;;;;;;5137756;27;20564;-48
2021/12/17 06:28:27;;;;;;;93.27;36.83;;;8.40;99.90;;;;;;5137664;27;20166;-49
2021/12/17 06:30:53;;;;;;;91.87;36.83;;;8.40;99.90;;;;;;5137772;27;20170;-49
2021/12/17 06:33:18;;;;;;;85.77;35.67;;;8.40;99.90;;;;;;5118906;27;20202;-49
2021/12/17 06:35:44;;;;;;;87.67;34.43;;;8.40;99.90;;;;;;5137399;27;20532;-47
2021/12/17 06:38:09;;;;;;;91.70;35.67;;;8.40;99.90;;;;;;5137816;27;20177;-47
2021/12/17 06:40:35;;;;;;;86.20;36.27;;;8.40;99.90;;;;;;5142729;27;20204;-46
2021/12/17 06:43:01;;;;;;;96.97;37.40;;;8.40;99.90;;;;;;5124417;27;20563;-44
2021/12/17 06:45:53;;;;;;;93.57;37.87;;;8.40;99.90;;;;;;5141611;27;20181;-44
2021/12/17 06:48:23;;;;;;;91.37;37.90;;;8.40;99.90;;;;;;5119627;27;20170;-49
2021/12/17 07:21:32;;;;;;;83.27;29.60;;;8.20;99.90;;;;;;5148868;27;20616;-47
2021/12/17 07:35:23;;;;;;;87.93;30.73;;;8.20;99.90;;;;;;5132220;27;20157;-46
2021/12/17 07:40:12;;;;;;;86.00;30.23;;;8.20;99.90;;;;;;5130893;27;20252;-46
2021/12/17 07:42:39;;;;;;;82.07;28.30;;;8.10;99.90;;;;;;5147055;27;20262;-46
2021/12/17 07:45:06;;;;;;;79.73;27.73;;;8.10;99.90;;;;;;5148564;27;20173;-47
2021/12/17 07:47:33;;;;;;;76.83;28.63;;;8.10;99.90;;;;;;5147788;27;20216;-47
2021/12/17 07:50:00;;;;;;;72.50;26.23;;;8.10;99.90;;;;;;5147461;27;20608;-48
2021/12/17 07:52:26;;;;;;;66.07;27.20;;;8.10;99.90;;;;;;5128787;27;20681;-47
2021/12/17 07:54:52;;;;;;;84.63;29.00;;;8.10;99.90;;;;;;5129403;27;20252;-47
2021/12/17 07:57:19;;;;;;;82.63;27.70;;;8.10;99.90;;;;;;5147231;27;20257;-47
2021/12/17 07:59:45;;;;;;;67.73;25.53;;;8.10;99.90;;;;;;5128837;27;20201;-47
2021/12/17 08:02:11;;;;;;;64.60;24.77;;;8.10;99.90;;;;;;5147194;27;20197;-46
2021/12/17 08:04:38;;;;;;;61.20;24.13;;;8.10;99.90;;;;;;5146630;27;20234;-47
2021/12/17 08:07:16;;;;;;;65.93;24.73;;;8.10;99.90;;;;;;5147580;27;20527;-46
2021/12/17 08:09:44;;;;;;;68.70;27.13;;;8.10;99.90;;;;;;5127561;27;20201;-47
2021/12/17 08:12:16;;;;;;;59.93;24.37;;;8.00;99.90;;;;;;5128143;27;20253;-47
2021/12/17 08:14:43;;;;;;;63.67;24.90;;;8.00;99.90;;;;;;5128589;27;20178;-47
2021/12/17 08:17:38;;;;;;;62.10;22.70;;;8.00;99.90;;;;;;5146968;27;20203;-47
2021/12/17 08:26:05;;;;;;;59.93;22.40;;;8.10;99.90;;;;;;5146095;27;20209;-46
2021/12/17 08:28:28;;;;;;;57.03;22.10;;;8.00;99.90;;;;;;5144827;27;20212;-46
2021/12/17 08:30:54;;;;;;;57.70;21.93;;;8.00;99.90;;;;;;5130827;27;20170;-46
2021/12/17 08:33:21;;;;;;;59.13;22.83;;;8.00;99.90;;;;;;5128825;27;20265;-47
2021/12/17 08:35:50;;;;;;;59.07;22.07;;;8.00;99.90;;;;;;5149878;27;20189;-43
2021/12/17 08:38:17;;;;;;;52.70;22.33;;;8.00;99.90;;;;;;5123748;28;20177;-43
2021/12/17 08:40:44;;;;;;;59.77;22.10;;;8.00;99.90;;;;;;5119369;27;20261;-43
2021/12/17 08:43:10;;;;;;;55.43;21.83;;;8.00;99.90;;;;;;5135448;27;20212;-43
2021/12/17 08:45:35;;;;;;;59.50;21.60;;;8.00;99.90;;;;;;5135477;27;20181;-41
2021/12/17 08:48:01;;;;;;;52.20;21.33;;;8.00;99.90;;;;;;5136428;27;20200;-45
2021/12/17 08:50:32;;;;;;;56.40;22.30;;;8.00;99.90;;;;;;5137450;27;20177;-42
2021/12/17 08:52:57;;;;;;;52.97;21.00;;;8.00;99.90;;;;;;5138233;27;20181;-43
2021/12/17 08:55:23;;;;;;;57.40;23.13;;;8.00;99.90;;;;;;5116531;27;20173;-43
2021/12/17 08:57:48;;;;;;;57.40;22.23;;;8.00;99.90;;;;;;5116332;27;20644;-43
2021/12/17 09:00:15;;;;;;;57.90;22.57;;;8.00;99.90;;;;;;5135367;27;20396;-44
2021/12/17 09:02:41;;;;;;;69.37;23.80;;;8.00;99.90;;;;;;5116205;27;20685;-43
2021/12/17 09:05:08;;;;;;;60.47;23.43;;;8.00;99.90;;;;;;5134039;27;20170;-45
2021/12/17 09:07:34;;;;;;;60.53;23.10;;;8.00;99.90;;;;;;5134675;27;20201;-42
2021/12/17 09:10:03;;;;;;;60.03;23.53;;;8.00;99.90;;;;;;5134691;27;20246;-44
2021/12/17 09:12:29;;;;;;;64.63;24.67;;;8.00;99.90;;;;;;5134914;28;20207;-44
2021/12/17 09:14:55;;;;;;;65.20;24.37;;;8.00;99.90;;;;;;5134691;28;20174;-44
2021/12/17 09:17:24;;;;;;;68.77;23.97;;;8.00;99.90;;;;;;5116341;28;20173;-44
2021/12/17 09:19:50;;;;;;;76.40;25.03;;;8.00;99.90;;;;;;5135104;28;20173;-43
2021/12/17 09:22:15;;;;;;;72.10;25.60;;;8.00;99.90;;;;;;5134792;28;20555;-43
2021/12/17 09:24:41;;;;;;;77.23;25.97;;;8.00;99.90;;;;;;5135296;28;20181;-44
2021/12/17 09:27:07;;;;;;;79.37;25.70;;;8.00;99.90;;;;;;5135153;28;20197;-43
2021/12/17 09:29:32;;;;;;;77.47;24.93;;;8.00;99.90;;;;;;5135432;28;20177;-44
2021/12/17 09:31:58;;;;;;;72.43;24.37;;;8.00;99.90;;;;;;5136137;28;20199;-43
2021/12/17 09:34:24;;;;;;;75.47;25.33;;;8.10;99.90;;;;;;5138018;28;20169;-43
2021/12/17 09:36:49;;;;;;;83.83;27.43;;;8.10;99.90;;;;;;5123559;28;20226;-42
2021/12/17 09:39:19;;;;;;;69.83;24.57;;;8.00;99.90;;;;;;5145084;28;20209;-49
2021/12/17 09:41:50;;;;;;;73.53;23.80;;;8.00;99.90;;;;;;5142138;28;20689;-50
2021/12/17 09:44:19;;;;;;;80.83;26.37;;;8.00;99.90;;;;;;5124292;28;20182;-47
2021/12/17 09:46:45;;;;;;;75.03;27.27;;;8.10;99.90;;;;;;5141071;28;20661;-45
2021/12/17 09:49:15;;;;;;;89.13;27.77;;;8.00;99.90;;;;;;5140943;28;20172;-46
2021/12/17 09:51:41;;;;;;;83.23;24.63;;;8.10;99.90;;;;;;5141067;28;20212;-42
2021/12/17 09:54:07;;;;;;;85.10;26.90;;;8.10;99.90;;;;;;5121920;28;20242;-42
2021/12/17 09:56:36;;;;;;;85.03;26.87;;;8.10;99.90;;;;;;5141198;28;20177;-45
2021/12/17 09:59:02;;;;;;;82.33;25.80;;;8.10;99.90;;;;;;5140512;28;20231;-48
2021/12/17 10:01:31;;;;;;;89.90;27.93;;;8.10;99.90;;;;;;5139392;28;20201;-44
2021/12/17 10:04:16;;;;;;;97.10;27.17;;;8.10;99.90;;;;;;5121567;28;20187;-46
2021/12/17 10:06:43;;;;;;;91.90;26.60;;;8.10;99.90;;;;;;5140249;28;20637;-45
2021/12/17 10:09:09;;;;;;;99.17;27.30;;;8.10;99.90;;;;;;5123181;28;20181;-46
2021/12/17 10:11:35;;;;;;;91.77;27.77;;;8.20;99.90;;;;;;5142106;28;20200;-48
2021/12/17 10:14:27;;;;;;;88.27;25.63;;;8.20;99.90;;;;;;5140531;28;20198;-48
2021/12/17 10:17:13;;;;;;;87.83;25.63;;;8.10;99.90;;;;;;5141182;27;20185;-48
2021/12/17 10:19:44;;;;;;;103.37;28.60;;;8.20;99.90;;;;;;5129335;27;20309;-47
2021/12/17 10:22:12;;;;;;;96.80;26.70;;;8.20;99.90;;;;;;5146330;27;20201;-48
2021/12/17 10:24:57;;;;;;;97.93;29.50;;;8.20;99.90;;;;;;5146975;27;20181;-45
2021/12/17 10:27:32;;;;;;;95.13;27.43;;;8.20;99.90;;;;;;5147311;27;20188;-43
2021/12/17 10:29:59;;;;;;;94.40;26.53;;;8.20;99.90;;;;;;5145093;27;20200;-44
2021/12/17 10:32:28;;;;;;;99.93;26.83;;;8.20;99.90;;;;;;5145655;27;20208;-48
2021/12/17 10:35:00;;;;;;;95.97;26.87;;;8.20;99.90;;;;;;5145115;27;20177;-44
2021/12/17 10:37:56;;;;;;;99.20;27.37;;;8.20;99.90;;;;;;5146248;27;20181;-44
2021/12/17 10:41:13;;;;;;;101.90;28.07;;;8.20;99.90;;;;;;5146165;27;20185;-48
2021/12/17 10:43:50;;;;;;;107.30;28.00;;;8.20;99.90;;;;;;5145699;27;20240;-47
2021/12/17 10:46:25;;;;;;;109.47;29.27;;;8.30;99.90;;;;;;5126916;27;20558;-46
2021/12/17 10:48:57;;;;;;;97.23;28.70;;;8.30;99.90;;;;;;5125609;27;20252;-45
2021/12/17 10:54:05;;;;;;;128.53;30.90;;;8.30;99.90;;;;;;5145475;27;20166;-49
2021/12/17 10:56:34;;;;;;;118.33;31.23;;;8.30;99.90;;;;;;5143709;27;20173;-46
2021/12/17 10:59:09;;;;;;;125.07;31.53;;;8.30;99.90;;;;;;5146031;27;20193;-47
2021/12/17 11:01:55;;;;;;;112.90;30.40;;;8.30;99.90;;;;;;5145426;27;20196;-48
2021/12/17 11:04:29;;;;;;;101.37;28.57;;;8.30;99.90;;;;;;5126015;27;20180;-45
2021/12/17 11:07:16;;;;;;;115.87;29.97;;;8.40;99.90;;;;;;5145372;27;20693;-43
2021/12/17 11:10:02;;;;;;;116.50;29.47;;;8.40;99.90;;;;;;5143534;27;20149;-43
2021/12/17 11:12:33;;;;;;;116.17;29.93;;;8.40;99.90;;;;;;5143149;27;20204;-47
2021/12/17 11:15:18;;;;;;;110.30;28.93;;;8.40;99.90;;;;;;5143438;27;20173;-47
2021/12/17 11:18:04;;;;;;;114.57;29.80;;;8.40;99.90;;;;;;5143012;27;20173;-47
2021/12/17 11:20:40;;;;;;;113.70;28.40;;;8.40;99.90;;;;;;5143343;27;20169;-46
2021/12/17 11:23:11;;;;;;;102.50;25.77;;;8.40;99.90;;;;;;5143320;27;20203;-46
2021/12/17 11:25:40;;;;;;;107.13;26.87;;;8.40;99.90;;;;;;5142662;27;20161;-47
2021/12/17 11:28:08;;;;;;;105.80;26.37;;;8.40;99.90;;;;;;5122499;27;20177;-47
2021/12/17 11:30:37;;;;;;;109.03;26.87;;;8.40;99.90;;;;;;5140912;27;20165;-47
2021/12/17 11:33:04;;;;;;;89.70;25.50;;;8.40;99.90;;;;;;5140530;27;20217;-43
2021/12/17 11:35:37;;;;;;;94.40;24.70;;;8.40;99.90;;;;;;5139907;27;20269;-43
2021/12/17 11:38:13;;;;;;;90.93;23.83;;;8.40;99.90;;;;;;5137736;27;20154;-47
2021/12/17 11:40:52;;;;;;;98.23;27.43;;;8.40;99.90;;;;;;5136356;27;20157;-48
2021/12/17 11:43:35;;;;;;;91.10;24.37;;;8.40;99.90;;;;;;5136681;27;20599;-47
2021/12/17 11:46:06;;;;;;;84.77;25.37;;;8.40;99.90;;;;;;5117781;27;20255;-47
2021/12/17 11:48:34;;;;;;;91.83;24.70;;;8.40;99.90;;;;;;5136262;27;20168;-48
2021/12/17 11:51:05;;;;;;;102.80;28.10;;;8.40;99.90;;;;;;5117632;27;20257;-46
2021/12/17 11:53:32;;;;;;;93.97;26.07;;;8.40;99.90;;;;;;5136339;27;20525;-49
2021/12/17 11:56:02;;;;;;;115.23;28.90;;;8.40;99.90;;;;;;5117908;27;20188;-48
2021/12/17 11:58:53;;;;;;;85.90;25.80;;;8.40;99.90;;;;;;5136033;27;20189;-48
2021/12/17 12:02:00;;;;;;;99.80;26.13;;;8.40;99.90;;;;;;5131739;27;20193;-47
2021/12/17 12:04:31;;;;;;;102.67;27.97;;;8.40;99.90;;;;;;5135861;27;20154;-47
2021/12/17 12:07:05;;;;;;;104.43;27.63;;;8.40;99.90;;;;;;5136020;27;20288;-49
2021/12/17 12:09:56;;;;;;;115.47;27.27;;;8.40;99.90;;;;;;5135577;27;20253;-47
2021/12/17 12:12:26;;;;;;;106.20;27.60;;;8.40;99.90;;;;;;5117203;27;20197;-48
2021/12/17 12:14:53;;;;;;;120.97;28.63;;;8.40;99.90;;;;;;5135825;27;20181;-47
2021/12/17 12:17:56;;;;;;;108.27;28.40;;;8.40;99.90;;;;;;5135725;27;20230;-47
2021/12/17 12:20:50;;;;;;;107.63;27.27;;;8.40;99.90;;;;;;5136128;27;20542;-48
2021/12/17 12:23:40;;;;;;;101.30;26.83;;;8.50;99.90;;;;;;5135678;27;20209;-50
2021/12/17 12:26:07;;;;;;;98.07;27.23;;;8.50;99.90;;;;;;5125293;27;20239;-48
2021/12/17 12:28:47;;;;;;;96.07;26.90;;;8.40;99.90;;;;;;5135243;27;20169;-48
2021/12/17 12:31:31;;;;;;;112.83;30.00;;;8.50;99.90;;;;;;5135604;27;20168;-51
2021/12/17 12:34:06;;;;;;;110.60;27.93;;;8.50;99.90;;;;;;5135372;27;20647;-48
2021/12/17 12:36:52;;;;;;;115.07;30.00;;;8.40;99.90;;;;;;5116703;27;20173;-50
2021/12/17 12:39:20;;;;;;;124.87;30.00;;;8.40;99.90;;;;;;5134610;27;20154;-49
2021/12/17 12:41:57;;;;;;;109.53;28.77;;;8.40;99.90;;;;;;5135306;27;20557;-48
2021/12/17 12:44:41;;;;;;;116.67;28.10;;;8.40;99.90;;;;;;5135242;27;20181;-49
2021/12/17 12:47:15;;;;;;;109.33;26.13;;;8.40;99.90;;;;;;5135172;27;20288;-50
2021/12/17 12:49:45;;;;;;;116.07;30.13;;;8.40;99.90;;;;;;5135209;27;20166;-48
2021/12/17 12:52:29;;;;;;;112.47;28.47;;;8.40;99.90;;;;;;5134800;27;20289;-51
2021/12/17 12:54:58;;;;;;;110.73;29.30;;;8.40;99.90;;;;;;5134913;27;20178;-50
2021/12/17 12:57:39;;;;;;;92.83;27.50;;;8.40;99.90;;;;;;5135004;27;20266;-49
2021/12/17 13:00:16;;;;;;;95.50;26.93;;;8.40;99.90;;;;;;5134776;27;20257;-48
2021/12/17 13:02:43;;;;;;;107.77;28.53;;;8.40;99.90;;;;;;5135043;27;20200;-49
2021/12/17 13:05:09;;;;;;;108.20;28.43;;;8.40;99.90;;;;;;5134870;27;20268;-50
2021/12/17 13:07:38;;;;;;;105.33;29.30;;;8.40;99.90;;;;;;5134505;27;20202;-50
2021/12/17 13:10:14;;;;;;;98.17;27.57;;;8.40;99.90;;;;;;5135169;27;20161;-49
2021/12/17 13:12:46;;;;;;;95.57;29.27;;;8.40;99.90;;;;;;5135364;27;20282;-49
2021/12/17 13:23:22;;;;;;;87.83;28.27;;;8.50;99.90;;;;;;5134934;28;20675;-45
2021/12/17 13:26:25;;;;;;;79.87;26.87;;;8.50;99.90;;;;;;5134657;28;20161;-46
2021/12/17 13:29:05;;;;;;;73.73;25.53;;;8.50;99.90;;;;;;5051193;28;20231;-45
2021/12/17 13:31:33;;;;;;;75.10;26.47;;;8.50;99.90;;;;;;5108322;28;20205;-45
2021/12/17 13:33:59;;;;;;;85.50;27.03;;;8.50;99.90;;;;;;5134332;28;20194;-45
2021/12/17 13:36:25;;;;;;;85.33;25.93;;;8.50;99.90;;;;;;5134390;28;20178;-45
2021/12/17 13:38:56;;;;;;;81.40;27.50;;;8.50;99.90;;;;;;5134604;28;20185;-46
2021/12/17 13:41:42;;;;;;;93.33;28.60;;;8.50;99.90;;;;;;5136421;28;20614;-45
2021/12/17 13:44:28;;;;;;;84.77;28.30;;;8.50;99.90;;;;;;5134370;28;20507;-44
2021/12/17 13:47:24;;;;;;;83.00;26.33;;;8.60;99.90;;;;;;5134522;28;20197;-45
2021/12/17 13:50:09;;;;;;;78.07;26.50;;;8.60;99.90;;;;;;5134249;28;20166;-44
2021/12/17 13:52:43;;;;;;;77.90;27.27;;;8.60;99.90;;;;;;5137820;27;20662;-43
2021/12/17 13:55:12;;;;;;;78.23;26.57;;;8.60;99.90;;;;;;5138434;27;20176;-45
2021/12/17 13:57:40;;;;;;;81.03;27.07;;;8.60;99.90;;;;;;5138116;27;20174;-46
2021/12/17 14:00:14;;;;;;;73.47;25.73;;;8.60;99.90;;;;;;5138140;27;20362;-44
2021/12/17 14:02:42;;;;;;;78.60;25.13;;;8.60;99.90;;;;;;5138368;27;20255;-43
2021/12/17 14:05:16;;;;;;;76.23;25.80;;;8.60;99.90;;;;;;5138306;27;20288;-45
2021/12/17 14:07:48;;;;;;;84.87;27.60;;;8.60;99.90;;;;;;5137722;27;20185;-45
2021/12/17 14:10:18;;;;;;;76.70;27.30;;;8.60;99.90;;;;;;5138159;27;20670;-44
2021/12/17 14:12:44;;;;;;;77.50;27.50;;;8.60;99.90;;;;;;5119385;27;20195;-46
2021/12/17 14:15:17;;;;;;;84.63;26.83;;;8.60;99.90;;;;;;5138061;27;20173;-44
2021/12/17 14:17:46;;;;;;;80.83;28.70;;;8.60;99.90;;;;;;5137750;27;20218;-45
2021/12/17 14:20:18;;;;;;;79.03;27.10;;;8.60;99.90;;;;;;5120700;27;20177;-50
2021/12/17 14:22:45;;;;;;;72.00;26.60;;;8.60;99.90;;;;;;5137578;27;20675;-49
2021/12/17 14:25:48;;;;;;;80.90;28.77;;;8.60;99.90;;;;;;5138074;27;20197;-50
2021/12/17 14:28:25;;;;;;;81.67;27.43;;;8.60;99.90;;;;;;5138076;27;20565;-48
2021/12/17 14:30:56;;;;;;;76.80;28.00;;;8.60;99.90;;;;;;5137751;27;20164;-48
2021/12/17 14:33:34;;;;;;;86.10;27.60;;;8.60;99.90;;;;;;5118666;27;20676;-47
2021/12/17 14:36:06;;;;;;;68.57;25.80;;;8.60;99.90;;;;;;5137379;27;20176;-48
2021/12/17 14:38:36;;;;;;;68.30;24.40;;;8.60;99.90;;;;;;5137582;27;20165;-49
2021/12/17 14:41:03;;;;;;;68.77;25.20;;;8.60;99.90;;;;;;5137191;27;20174;-49
2021/12/17 14:43:37;;;;;;;75.93;27.63;;;8.60;99.90;;;;;;5137124;27;20633;-49
2021/12/17 14:46:17;;;;;;;69.50;26.80;;;8.60;99.90;;;;;;5137900;27;20201;-49
2021/12/17 14:48:56;;;;;;;57.07;23.53;;;8.60;99.90;;;;;;5137106;27;20160;-49
2021/12/17 15:04:50;;;;;;;60.97;25.40;;;8.60;99.90;;;;;;5107146;27;20579;-51
2021/12/17 15:07:18;;;;;;;56.33;22.30;;;8.60;99.90;;;;;;5136819;27;20201;-49
2021/12/17 15:09:45;;;;;;;58.70;23.43;;;8.60;99.90;;;;;;5118695;27;20166;-50
2021/12/17 15:12:35;;;;;;;47.30;20.43;;;8.60;99.90;;;;;;5136808;27;20660;-49
2021/12/17 15:14:59;;;;;;;48.27;20.30;;;8.60;99.90;;;;;;5136425;27;20178;-49
2021/12/17 15:17:25;;;;;;;50.87;21.40;;;8.50;99.90;;;;;;5136929;27;20177;-49
2021/12/17 15:19:51;;;;;;;53.80;20.60;;;8.60;99.90;;;;;;5118135;27;20230;-49
2021/12/17 15:22:16;;;;;;;46.80;20.20;;;8.50;99.90;;;;;;5136342;27;20660;-49
2021/12/17 15:24:42;;;;;;;51.40;21.30;;;8.50;99.90;;;;;;5117951;27;20230;-50
2021/12/17 15:27:08;;;;;;;49.53;21.83;;;8.50;99.90;;;;;;5117934;27;20209;-49
2021/12/17 15:29:34;;;;;;;48.27;21.27;;;8.50;99.90;;;;;;5118175;27;20188;-49
2021/12/17 15:31:59;;;;;;;50.33;21.77;;;8.50;99.90;;;;;;5136433;27;20189;-49
2021/12/17 15:34:26;;;;;;;52.20;22.63;;;8.50;99.90;;;;;;5136261;27;20170;-48
2021/12/17 15:36:52;;;;;;;51.67;23.40;;;8.40;99.90;;;;;;5136421;27;20262;-51
2021/12/17 15:39:18;;;;;;;44.73;20.83;;;8.50;99.90;;;;;;5117678;27;20178;-50
2021/12/17 15:41:43;;;;;;;53.27;22.60;;;8.40;99.90;;;;;;5136446;27;20189;-50
2021/12/17 15:44:10;;;;;;;44.77;21.40;;;8.40;99.90;;;;;;5117670;27;20178;-50
2021/12/17 15:46:37;;;;;;;41.23;20.57;;;8.40;99.90;;;;;;5136410;27;20227;-50
2021/12/17 15:49:05;;;;;;;43.23;21.30;;;8.40;99.90;;;;;;5136044;27;20191;-49
2021/12/17 15:51:32;;;;;;;40.87;20.53;;;8.40;99.90;;;;;;5136046;27;20250;-49
2021/12/17 15:53:58;;;;;;;40.97;21.07;;;8.40;99.90;;;;;;5136641;27;20164;-50
2021/12/17 15:56:24;;;;;;;44.53;23.40;;;8.40;99.90;;;;;;5136163;27;20230;-49
2021/12/17 15:58:50;;;;;;;46.37;22.60;;;8.40;99.90;;;;;;5135709;27;20189;-48